Terre Haute, Indiana
Current Conditions -  °F | °C
As of 8:20 PM on Sunday 23 Nov 2014 (Local Time) from KHUF Reporting Station
Heavy Rain Heavy Rain  
Wind Chill: 53°   Ceiling: 3000
Heat Index: 53°   Visibility: 3mi
Dew Point: 51°   Wind: 8mph
Humidity: 93%   Direction: 130°SE
Pressure: 29.27"   Gusts: NA
Location:  39.47°N, 87.41°W
Report Text: KHUF 240120Z 13007KT 3SM +RA BR SCT005 BKN030 OVC046 12/11 A2927 RMK AO2 P0014 T01170106 $
Loading
Personal Weather Stations






























Interactive Weather Map New forecast layout! Learn more

10-Day Weather Forecast

Advertisements
Track Severe Weather on mobile